createdAt,value
2022-11-05T00:01:32.086Z,74.89
2022-11-05T00:07:00.956Z,74.91
2022-11-05T00:12:29.454Z,74.96
2022-11-05T00:17:37.251Z,75.01
2022-11-05T00:23:01.786Z,75.07
2022-11-05T00:28:09.776Z,75.13
2022-11-05T00:33:17.475Z,75.20
2022-11-05T00:38:25.037Z,75.22
2022-11-05T00:43:51.069Z,75.25
2022-11-05T00:49:16.312Z,75.25
2022-11-05T00:54:24.003Z,75.25
2022-11-05T00:59:31.622Z,75.27
2022-11-05T01:04:39.398Z,75.29
2022-11-05T01:09:47.079Z,75.30
2022-11-05T01:14:55.092Z,75.30
2022-11-05T01:20:02.508Z,75.31
2022-11-05T01:25:12.177Z,75.33
2022-11-05T01:30:20.158Z,75.35
2022-11-05T01:35:27.474Z,75.37
2022-11-05T01:40:35.293Z,75.39
2022-11-05T01:45:43.872Z,75.40
2022-11-05T01:50:56.121Z,75.38
2022-11-05T01:56:04.427Z,75.35
2022-11-05T02:01:12.439Z,75.34
2022-11-05T02:06:21.476Z,75.36
2022-11-05T02:11:29.040Z,75.36
2022-11-05T02:16:43.574Z,75.33
2022-11-05T02:22:25.160Z,75.31
2022-11-05T02:28:06.443Z,75.29
2022-11-05T02:33:30.158Z,75.29
2022-11-05T02:38:44.948Z,75.29
2022-11-05T02:44:04.891Z,75.31
2022-11-05T02:49:29.076Z,75.34
2022-11-05T02:54:41.700Z,75.36
2022-11-05T02:59:49.317Z,75.38
2022-11-05T03:04:57.002Z,75.41
2022-11-05T03:10:41.711Z,75.43
2022-11-05T03:15:59.687Z,75.43
2022-11-05T03:21:12.846Z,75.43
2022-11-05T03:26:28.084Z,75.45
2022-11-05T03:31:37.591Z,75.42
2022-11-05T03:36:49.045Z,75.41
2022-11-05T03:41:58.817Z,75.42
2022-11-05T03:47:11.002Z,75.42
2022-11-05T03:52:21.346Z,75.43
2022-11-05T03:57:32.041Z,75.44
2022-11-05T04:02:41.215Z,75.48
2022-11-05T04:08:11.366Z,75.51
2022-11-05T04:13:28.244Z,75.52
2022-11-05T04:18:37.044Z,75.53
2022-11-05T04:24:02.633Z,75.53
2022-11-05T04:29:28.181Z,75.52
2022-11-05T04:34:36.003Z,75.50
2022-11-05T04:39:43.677Z,75.50
2022-11-05T04:44:51.028Z,75.50
2022-11-05T04:49:58.923Z,75.54
2022-11-05T04:55:07.549Z,75.55
2022-11-05T05:00:15.748Z,75.56
2022-11-05T05:05:23.559Z,75.62
2022-11-05T05:10:31.147Z,75.68
2022-11-05T05:15:39.068Z,75.72
2022-11-05T05:21:03.538Z,75.77
2022-11-05T05:26:11.302Z,75.83
2022-11-05T05:31:18.608Z,75.87
2022-11-05T05:36:26.749Z,75.92
2022-11-05T05:41:34.262Z,75.98
2022-11-05T05:46:41.576Z,76.05
2022-11-05T05:51:49.879Z,76.10
2022-11-05T05:56:58.410Z,76.16
2022-11-05T06:02:06.278Z,76.20
2022-11-05T06:07:13.662Z,76.28
2022-11-05T06:12:21.041Z,76.35
2022-11-05T06:17:28.958Z,76.46
2022-11-05T06:22:36.369Z,76.56
2022-11-05T06:27:44.040Z,76.66
2022-11-05T06:32:51.630Z,76.77
2022-11-05T06:38:03.186Z,76.91
2022-11-05T06:43:10.816Z,77.04
2022-11-05T06:48:41.166Z,77.18
2022-11-05T06:53:48.770Z,78.02
2022-11-05T06:58:56.585Z,78.18
2022-11-05T07:04:04.078Z,78.06
2022-11-05T07:09:11.326Z,78.01
2022-11-05T07:14:18.773Z,77.99
2022-11-05T07:19:26.203Z,78.01
2022-11-05T07:24:33.819Z,78.07
2022-11-05T07:29:41.306Z,78.13
2022-11-05T07:34:48.487Z,78.24
2022-11-05T07:39:55.885Z,78.35
2022-11-05T07:45:03.480Z,78.44
2022-11-05T07:50:12.135Z,78.54
2022-11-05T07:55:20.707Z,78.69
2022-11-05T08:00:29.908Z,78.84
2022-11-05T08:05:39.047Z,79.01
2022-11-05T08:10:46.588Z,79.16
2022-11-05T08:15:54.249Z,79.32
2022-11-05T08:21:03.043Z,79.42
2022-11-05T08:26:11.720Z,79.55
2022-11-05T08:31:19.586Z,79.68
2022-11-05T08:36:27.282Z,79.80
2022-11-05T08:41:34.749Z,79.91
2022-11-05T08:46:42.281Z,79.96
2022-11-05T08:51:49.909Z,80.09
2022-11-05T08:56:58.524Z,80.20
2022-11-05T09:02:06.610Z,80.33
2022-11-05T09:07:14.460Z,80.46
2022-11-05T09:12:22.354Z,80.58
2022-11-05T09:17:29.954Z,80.62
2022-11-05T09:22:42.172Z,80.67
2022-11-05T09:27:51.186Z,80.77
2022-11-05T09:32:58.730Z,80.86
2022-11-05T09:38:06.518Z,80.92
2022-11-05T09:43:20.717Z,81.01
2022-11-05T09:48:32.713Z,81.08
2022-11-05T09:53:42.839Z,81.16
2022-11-05T09:58:54.079Z,81.22
2022-11-05T10:04:11.594Z,81.24
2022-11-05T10:09:27.128Z,81.26
2022-11-05T10:14:39.961Z,81.31
2022-11-05T10:19:50.266Z,81.35
2022-11-05T10:24:58.801Z,81.43
2022-11-05T10:30:07.186Z,81.51
2022-11-05T10:35:19.115Z,81.52
2022-11-05T10:40:40.126Z,81.55
2022-11-05T10:45:57.849Z,81.61
2022-11-05T10:51:06.755Z,81.65
2022-11-05T10:56:35.074Z,81.67
2022-11-05T11:01:42.901Z,81.68
2022-11-05T11:06:55.481Z,81.74
2022-11-05T11:12:07.235Z,81.73
2022-11-05T11:17:31.091Z,81.74
2022-11-05T11:22:38.746Z,81.75
2022-11-05T11:27:46.793Z,81.79
2022-11-05T11:32:54.318Z,81.85
2022-11-05T11:38:02.580Z,81.88
2022-11-05T11:43:29.031Z,81.90
2022-11-05T11:48:38.627Z,81.91
2022-11-05T11:53:46.522Z,81.95
2022-11-05T11:58:55.548Z,81.92
2022-11-05T12:04:12.720Z,81.89
2022-11-05T12:09:30.867Z,81.90
2022-11-05T12:14:47.819Z,81.93
2022-11-05T12:20:17.116Z,81.94
2022-11-05T12:25:31.051Z,81.95
2022-11-05T12:30:50.060Z,82.05
2022-11-05T12:36:16.147Z,82.10
2022-11-05T12:41:31.059Z,82.09
2022-11-05T12:46:46.075Z,82.13
2022-11-05T12:52:09.551Z,82.14
2022-11-05T12:57:18.452Z,82.14
2022-11-05T13:02:32.123Z,82.21
2022-11-05T13:07:45.660Z,82.23
2022-11-05T13:13:01.160Z,82.26
2022-11-05T13:18:13.329Z,82.30
2022-11-05T13:23:31.480Z,82.34
2022-11-05T13:28:47.797Z,82.35
2022-11-05T13:33:56.627Z,82.37
2022-11-05T13:39:13.654Z,82.40
2022-11-05T13:44:42.723Z,82.43
2022-11-05T13:50:24.703Z,82.40
2022-11-05T13:55:58.687Z,82.43
2022-11-05T14:01:17.784Z,82.47
2022-11-05T14:06:32.268Z,82.54
2022-11-05T14:11:43.023Z,82.56
2022-11-05T14:16:56.494Z,82.59
2022-11-05T14:22:24.581Z,82.62
2022-11-05T14:27:46.215Z,82.61
2022-11-05T14:33:05.214Z,82.63
2022-11-05T14:38:23.642Z,82.64
2022-11-05T14:43:34.444Z,82.68
2022-11-05T14:48:45.167Z,82.73
2022-11-05T14:54:00.758Z,82.72
2022-11-05T14:59:41.982Z,82.70
2022-11-05T15:04:51.302Z,82.69
2022-11-05T15:10:09.897Z,82.70
2022-11-05T15:15:25.399Z,82.70
2022-11-05T15:20:40.407Z,82.72
2022-11-05T15:26:05.394Z,82.71
2022-11-05T15:31:28.674Z,82.70
2022-11-05T15:36:36.535Z,82.73
2022-11-05T15:41:44.871Z,82.80
2022-11-05T15:47:06.643Z,82.83
2022-11-05T15:52:17.613Z,82.80
2022-11-05T15:57:29.520Z,82.81
2022-11-05T16:02:40.933Z,82.82
2022-11-05T16:07:50.165Z,82.83
2022-11-05T16:12:59.041Z,82.83
2022-11-05T16:18:20.373Z,82.85
2022-11-05T16:23:42.043Z,82.87
2022-11-05T16:28:54.159Z,82.87
2022-11-05T16:34:02.439Z,82.89
2022-11-05T16:39:12.257Z,82.89
2022-11-05T16:44:20.077Z,82.89
2022-11-05T16:49:27.969Z,82.91
2022-11-05T16:54:36.361Z,82.95
2022-11-05T16:59:44.940Z,82.96
2022-11-05T17:04:52.967Z,82.96
2022-11-05T17:10:00.885Z,82.97
2022-11-05T17:15:19.246Z,82.96
2022-11-05T17:20:39.489Z,82.97
2022-11-05T17:25:50.334Z,83.00
2022-11-05T17:31:00.435Z,83.03
2022-11-05T17:36:13.680Z,83.03
2022-11-05T17:41:23.596Z,83.06
2022-11-05T17:46:31.512Z,83.10
2022-11-05T17:51:39.491Z,83.11
2022-11-05T17:56:47.331Z,83.13
2022-11-05T18:01:55.224Z,83.14
2022-11-05T18:07:03.842Z,83.17
2022-11-05T18:12:12.113Z,83.21
2022-11-05T18:17:20.361Z,83.23
2022-11-05T18:22:28.614Z,83.24
2022-11-05T18:27:36.994Z,83.24
2022-11-05T18:32:45.005Z,83.27
2022-11-05T18:37:53.038Z,83.28
2022-11-05T18:43:00.840Z,83.29
2022-11-05T18:48:09.168Z,83.33
2022-11-05T18:53:17.351Z,83.39
2022-11-05T18:58:25.363Z,83.42
2022-11-05T19:03:33.914Z,83.42
2022-11-05T19:08:42.035Z,83.44
2022-11-05T19:13:50.964Z,83.52
2022-11-05T19:19:02.358Z,83.55
2022-11-05T19:24:16.725Z,83.55
2022-11-05T19:29:25.355Z,83.55
2022-11-05T19:34:33.503Z,83.56
2022-11-05T19:39:42.166Z,83.56
2022-11-05T19:44:50.002Z,83.57
2022-11-05T19:49:58.010Z,83.57
2022-11-05T19:55:11.854Z,83.57
2022-11-05T20:00:21.243Z,83.57
2022-11-05T20:05:29.093Z,83.57
2022-11-05T20:10:40.518Z,83.58
2022-11-05T20:15:48.319Z,83.56
2022-11-05T20:21:07.667Z,83.56
2022-11-05T20:26:16.490Z,83.57
2022-11-05T20:31:25.250Z,83.61
2022-11-05T20:36:33.465Z,83.63
2022-11-05T20:41:41.299Z,83.61
2022-11-05T20:46:49.041Z,83.57
2022-11-05T20:51:56.990Z,83.56
2022-11-05T20:57:05.194Z,83.55
2022-11-05T21:02:13.967Z,83.52
2022-11-05T21:07:22.084Z,83.50
2022-11-05T21:12:29.905Z,83.52
2022-11-05T21:17:38.032Z,83.51
2022-11-05T21:22:46.228Z,83.54
2022-11-05T21:27:53.875Z,83.54
2022-11-05T21:33:02.194Z,83.55
2022-11-05T21:38:10.188Z,83.54
2022-11-05T21:43:18.926Z,83.56
2022-11-05T21:48:26.877Z,83.57
2022-11-05T21:53:48.749Z,83.59
2022-11-05T21:59:14.276Z,83.61
2022-11-05T22:04:22.597Z,83.62
2022-11-05T22:09:31.163Z,83.68
2022-11-05T22:14:39.392Z,83.71
2022-11-05T22:19:47.350Z,83.70
2022-11-05T22:24:54.997Z,83.68
2022-11-05T22:30:02.723Z,83.69
2022-11-05T22:35:11.967Z,83.69
2022-11-05T22:40:23.707Z,83.70
2022-11-05T22:45:32.228Z,83.71
2022-11-05T22:50:40.391Z,83.70
2022-11-05T22:55:48.444Z,83.68
2022-11-05T23:00:56.320Z,83.66
2022-11-05T23:06:06.309Z,83.62
2022-11-05T23:11:39.115Z,83.60
2022-11-05T23:17:04.582Z,83.61
2022-11-05T23:22:33.593Z,83.60
2022-11-05T23:27:43.152Z,83.57
2022-11-05T23:32:51.902Z,83.57
2022-11-05T23:38:17.308Z,83.56
2022-11-05T23:43:42.740Z,83.52
2022-11-05T23:48:50.870Z,83.44
2022-11-05T23:53:58.988Z,83.31
2022-11-05T23:59:06.707Z,83.18
